Time;durP1;ratioP1;P1;durP2;ratioP2;P2;SDS_P1;SDS_P2;PMS_P1;PMS_P2;Temp;Humidity;BMP_temperature;BMP_pressure;BME280_temperature;BME280_humidity;BME280_pressure;Samples;Min_cycle;Max_cycle;Signal;HPM_P1;HPM_P2
2021/03/07 00:01:20;;;;;;;;;;;;;;;7.30;43.41;102064.38;5077235;28;19911;-82
2021/03/07 00:04:04;;;;;;;;;;;;;;;7.17;43.91;102068.31;5073601;28;19912;-83
2021/03/07 00:06:49;;;;;;;;;;;;;;;6.96;44.73;102069.22;5074729;28;19912;-83
2021/03/07 00:09:33;;;;;;;;;;;;;;;7.11;44.04;102068.56;5094437;28;19911;-82
2021/03/07 00:12:18;;;;;;;;;;;;;;;7.09;43.67;102060.69;5101127;28;19912;-82
2021/03/07 00:15:03;;;;;;;;;;;;;;;7.35;44.97;102066.28;5076487;28;19916;-82
2021/03/07 00:17:48;;;;;;;;;;;;;;;7.19;43.81;102057.25;5072894;28;19916;-81
2021/03/07 00:20:34;;;;;;;;;;;;;;;7.27;44.04;102060.28;5073289;28;19919;-82
2021/03/07 00:23:19;;;;;;;;;;;;;;;7.20;43.77;102061.59;5076992;28;19911;-81
2021/03/07 00:26:04;;;;;;;;;;;;;;;7.17;43.41;102054.81;5090113;28;19912;-83
2021/03/07 00:28:49;;;;;;;;;;;;;;;7.12;43.72;102049.34;5077675;28;20294;-80
2021/03/07 00:31:34;;;;;;;;;;;;;;;7.15;43.22;102048.03;5075429;28;20389;-81
2021/03/07 00:34:19;;;;;;;;;;;;;;;7.09;44.14;102044.47;5079672;28;19912;-80
2021/03/07 00:37:04;;;;;;;;;;;;;;;7.01;44.02;102047.63;5077880;28;20382;-83
2021/03/07 00:39:49;;;;;;;;;;;;;;;7.04;44.96;102047.13;5081916;28;19912;-80
2021/03/07 00:42:33;;;;;;;;;;;;;;;7.08;43.66;102047.44;5079566;28;19912;-82
2021/03/07 00:45:19;;;;;;;;;;;;;;;7.02;44.08;102048.47;5079702;28;19911;-83
2021/03/07 00:48:04;;;;;;;;;;;;;;;7.11;45.03;102042.31;5075526;28;19912;-81
2021/03/07 00:50:48;;;;;;;;;;;;;;;7.17;43.58;102040.47;5078598;28;19911;-82
2021/03/07 00:53:33;;;;;;;;;;;;;;;7.33;43.92;102034.06;5088372;28;20377;-80
2021/03/07 00:56:18;;;;;;;;;;;;;;;7.19;43.38;102041.03;5092211;28;20301;-80
2021/03/07 00:59:02;;;;;;;;;;;;;;;7.17;43.71;102024.22;5093574;28;19912;-81
2021/03/07 01:01:46;;;;;;;;;;;;;;;7.09;45.12;102030.13;5076999;28;19937;-82
2021/03/07 01:04:31;;;;;;;;;;;;;;;7.15;45.55;102024.50;5097036;28;20290;-82
2021/03/07 01:07:15;;;;;;;;;;;;;;;7.17;45.48;102010.69;5083589;28;19912;-83
2021/03/07 01:10:00;;;;;;;;;;;;;;;7.14;44.54;102006.66;5112424;28;19904;-83
2021/03/07 01:12:49;;;;;;;;;;;;;;;7.13;44.99;102009.59;5099720;28;19904;-78
2021/03/07 01:15:34;;;;;;;;;;;;;;;7.37;45.47;102010.81;5102882;28;19908;-80
2021/03/07 01:18:19;;;;;;;;;;;;;;;7.49;44.49;102011.44;5113883;28;19919;-78
2021/03/07 01:21:04;;;;;;;;;;;;;;;7.34;45.29;101997.84;5104666;28;19908;-77
2021/03/07 01:23:48;;;;;;;;;;;;;;;7.76;45.12;101995.06;5130062;28;19904;-78
2021/03/07 01:26:33;;;;;;;;;;;;;;;7.63;45.73;101996.34;5101290;28;19911;-83
2021/03/07 01:29:18;;;;;;;;;;;;;;;7.36;43.53;101992.16;5093345;28;20293;-82
2021/03/07 01:32:04;;;;;;;;;;;;;;;7.25;43.67;101983.19;5073871;28;19911;-84
2021/03/07 01:34:49;;;;;;;;;;;;;;;7.02;43.66;101980.84;5101265;28;20301;-83
2021/03/07 01:37:33;;;;;;;;;;;;;;;7.09;44.13;101974.16;5076837;28;19915;-82
2021/03/07 01:40:38;;;;;;;;;;;;;;;7.08;44.69;101977.09;5076961;28;19911;-81
2021/03/07 01:43:22;;;;;;;;;;;;;;;7.09;44.58;101967.94;5110395;28;19912;-83
2021/03/07 01:46:07;;;;;;;;;;;;;;;6.96;43.46;101965.69;5075333;28;19992;-83
2021/03/07 01:48:51;;;;;;;;;;;;;;;6.90;44.44;101956.72;5102475;28;19916;-82
2021/03/07 01:51:36;;;;;;;;;;;;;;;6.90;44.31;101954.03;5104534;28;19912;-82
2021/03/07 01:54:21;;;;;;;;;;;;;;;6.73;44.57;101954.16;5087031;28;20413;-82
2021/03/07 01:57:06;;;;;;;;;;;;;;;6.72;44.71;101963.34;5083627;28;19919;-82
2021/03/07 01:59:52;;;;;;;;;;;;;;;6.61;44.50;101950.81;5087790;28;19935;-83
2021/03/07 02:02:37;;;;;;;;;;;;;;;6.74;45.53;101954.97;5076867;28;19920;-84
2021/03/07 02:05:22;;;;;;;;;;;;;;;6.74;44.95;101944.16;5065156;28;19912;-80
2021/03/07 02:08:07;;;;;;;;;;;;;;;6.64;44.19;101938.69;5068612;28;19912;-84
2021/03/07 02:10:51;;;;;;;;;;;;;;;6.54;44.75;101936.72;5067026;28;19911;-81
2021/03/07 02:13:37;;;;;;;;;;;;;;;6.53;44.78;101940.50;5078497;28;19911;-82
2021/03/07 02:16:24;;;;;;;;;;;;;;;6.39;45.19;101929.31;5068548;28;19916;-81
2021/03/07 02:19:09;;;;;;;;;;;;;;;6.39;45.20;101932.00;5078729;28;19912;-82
2021/03/07 02:21:56;;;;;;;;;;;;;;;6.42;46.25;101923.38;5078052;28;19912;-78
2021/03/07 02:24:41;;;;;;;;;;;;;;;6.50;45.52;101919.41;5069108;28;19912;-83
2021/03/07 02:27:26;;;;;;;;;;;;;;;6.53;45.67;101915.34;5057915;23;19925;-81
2021/03/07 02:30:12;;;;;;;;;;;;;;;6.40;45.76;101916.59;5034475;28;19917;-81
2021/03/07 02:33:09;;;;;;;;;;;;;;;6.30;46.69;101911.91;5019220;28;20292;-81
2021/03/07 02:36:00;;;;;;;;;;;;;;;6.32;46.43;101909.78;5004424;28;19913;-81
2021/03/07 02:38:46;;;;;;;;;;;;;;;6.63;46.34;101910.84;5026272;28;19913;-81
2021/03/07 02:41:32;;;;;;;;;;;;;;;6.42;45.34;101912.56;5052377;28;19913;-81
2021/03/07 02:44:18;;;;;;;;;;;;;;;6.27;45.98;101908.94;5055440;28;19916;-81
2021/03/07 02:47:05;;;;;;;;;;;;;;;6.29;45.84;101910.31;5040056;28;19916;-81
2021/03/07 02:49:51;;;;;;;;;;;;;;;6.21;46.30;101902.66;5055938;28;19913;-81
2021/03/07 02:52:37;;;;;;;;;;;;;;;6.33;45.70;101897.91;5042194;28;20371;-81
2021/03/07 02:55:25;;;;;;;;;;;;;;;6.24;45.87;101899.47;5039771;28;20382;-81
2021/03/07 02:58:12;;;;;;;;;;;;;;;6.12;46.32;101895.28;5035494;28;19917;-81
2021/03/07 03:00:58;;;;;;;;;;;;;;;6.18;45.78;101894.28;5021799;28;19942;-81
2021/03/07 03:03:44;;;;;;;;;;;;;;;6.03;46.22;101889.56;5006591;28;19912;-81
2021/03/07 03:06:28;;;;;;;;;;;;;;;6.03;46.85;101891.44;5024551;28;19921;-81
2021/03/07 03:09:14;;;;;;;;;;;;;;;6.11;46.04;101886.38;5020795;28;19913;-81
2021/03/07 03:11:59;;;;;;;;;;;;;;;6.18;45.96;101886.97;5035770;28;19913;-81
2021/03/07 03:14:45;;;;;;;;;;;;;;;6.23;46.32;101883.50;5024061;28;19912;-81
2021/03/07 03:17:31;;;;;;;;;;;;;;;6.10;46.06;101879.34;5007999;28;19917;-81
2021/03/07 03:20:17;;;;;;;;;;;;;;;6.10;46.38;101882.03;5035262;28;20291;-81
2021/03/07 03:23:01;;;;;;;;;;;;;;;6.01;46.86;101878.19;5023686;28;19913;-81
2021/03/07 03:25:47;;;;;;;;;;;;;;;6.07;45.93;101879.03;5008352;28;19913;-81
2021/03/07 03:28:31;;;;;;;;;;;;;;;6.07;46.28;101873.66;5019685;28;19913;-81
2021/03/07 03:31:16;;;;;;;;;;;;;;;6.08;45.77;101876.09;5024400;28;19913;-81
2021/03/07 03:34:03;;;;;;;;;;;;;;;6.05;46.67;101876.59;5027555;28;19912;-81
2021/03/07 03:36:47;;;;;;;;;;;;;;;6.21;46.55;101872.13;5019917;28;19921;-81
2021/03/07 03:39:32;;;;;;;;;;;;;;;6.20;46.12;101879.41;5039051;28;20368;-81
2021/03/07 03:42:18;;;;;;;;;;;;;;;6.07;46.68;101874.47;5020129;28;19917;-81
2021/03/07 03:45:03;;;;;;;;;;;;;;;6.01;46.21;101870.09;5020641;28;19913;-81
2021/03/07 03:47:51;;;;;;;;;;;;;;;6.06;47.16;101872.81;5006958;28;19913;-81
2021/03/07 03:50:38;;;;;;;;;;;;;;;6.08;46.20;101875.28;5020053;28;19913;-81
2021/03/07 03:53:23;;;;;;;;;;;;;;;6.11;47.51;101869.34;5006448;28;19913;-81
2021/03/07 03:56:09;;;;;;;;;;;;;;;6.32;46.34;101869.28;5018862;28;19913;-81
2021/03/07 03:58:56;;;;;;;;;;;;;;;6.09;45.88;101864.22;5019393;28;19913;-81
2021/03/07 04:01:41;;;;;;;;;;;;;;;6.18;46.23;101869.97;5019944;28;20367;-81
2021/03/07 04:04:27;;;;;;;;;;;;;;;6.07;46.34;101873.66;5024654;28;19913;-81
2021/03/07 04:07:12;;;;;;;;;;;;;;;6.08;47.14;101864.47;5038821;28;20283;-81
2021/03/07 04:09:59;;;;;;;;;;;;;;;5.92;46.53;101872.44;5023691;28;20375;-81
2021/03/07 04:12:46;;;;;;;;;;;;;;;5.86;47.51;101865.31;5028194;28;19917;-81
2021/03/07 04:15:31;;;;;;;;;;;;;;;5.86;48.42;101862.63;5038784;28;19913;-81
2021/03/07 04:18:17;;;;;;;;;;;;;;;6.29;48.13;101866.28;5024582;28;19917;-81
2021/03/07 04:21:02;;;;;;;;;;;;;;;6.16;46.68;101854.00;5042506;28;20287;-81
2021/03/07 04:23:47;;;;;;;;;;;;;;;6.17;47.15;101857.53;5040018;28;19917;-81
2021/03/07 04:26:32;;;;;;;;;;;;;;;5.98;47.24;101849.81;5010867;28;19913;-81
2021/03/07 04:29:17;;;;;;;;;;;;;;;6.08;48.17;101853.69;5038116;28;19943;-81
2021/03/07 04:32:04;;;;;;;;;;;;;;;5.93;47.79;101855.19;5023479;28;19913;-81
2021/03/07 04:34:48;;;;;;;;;;;;;;;6.27;48.50;101852.22;5024566;28;19913;-81
2021/03/07 04:37:34;;;;;;;;;;;;;;;5.90;47.30;101852.16;5038706;28;19917;-81
2021/03/07 04:40:19;;;;;;;;;;;;;;;5.90;48.19;101852.16;5040608;28;19912;-81
2021/03/07 04:43:04;;;;;;;;;;;;;;;5.65;49.34;101863.50;5024400;28;19913;-81
2021/03/07 04:45:48;;;;;;;;;;;;;;;5.54;50.05;101850.94;5022908;28;20375;-81
2021/03/07 04:48:33;;;;;;;;;;;;;;;5.76;49.82;101851.72;5040855;28;19913;-81
2021/03/07 04:51:18;;;;;;;;;;;;;;;6.08;50.23;101841.00;5038512;28;19913;-81
2021/03/07 04:54:03;;;;;;;;;;;;;;;6.15;49.72;101838.06;5008817;28;19920;-81
2021/03/07 04:56:48;;;;;;;;;;;;;;;6.05;48.27;101836.09;5026651;28;19917;-80
2021/03/07 04:59:32;;;;;;;;;;;;;;;6.06;49.22;101828.81;5024404;28;19913;-81
2021/03/07 05:02:17;;;;;;;;;;;;;;;5.99;49.07;101840.63;5037606;28;19913;-80
2021/03/07 05:05:01;;;;;;;;;;;;;;;6.19;49.59;101841.91;5026769;28;19913;-81
2021/03/07 05:07:46;;;;;;;;;;;;;;;6.07;48.20;101830.44;5023637;28;19913;-81
2021/03/07 05:10:31;;;;;;;;;;;;;;;5.89;49.67;101835.13;5023128;28;19913;-81
2021/03/07 05:13:16;;;;;;;;;;;;;;;5.93;49.88;101830.06;5037302;28;19913;-81
2021/03/07 05:16:00;;;;;;;;;;;;;;;5.80;49.58;101831.25;5039058;28;19912;-81
2021/03/07 05:18:44;;;;;;;;;;;;;;;5.73;50.11;101829.84;5036210;28;19917;-81
2021/03/07 05:21:29;;;;;;;;;;;;;;;5.78;49.77;101828.00;5022701;28;19913;-81
2021/03/07 05:24:13;;;;;;;;;;;;;;;5.89;49.41;101831.66;5035905;28;19912;-80
2021/03/07 05:27:05;;;;;;;;;;;;;;;5.94;50.32;101831.69;5023530;28;20295;-81
2021/03/07 05:29:50;;;;;;;;;;;;;;;5.93;50.91;101830.88;5012963;28;19913;-81
2021/03/07 05:32:34;;;;;;;;;;;;;;;5.71;49.78;101824.69;5024851;28;20314;-81
2021/03/07 05:35:19;;;;;;;;;;;;;;;6.02;50.23;101823.13;5035779;28;19913;-81
2021/03/07 05:38:04;;;;;;;;;;;;;;;6.18;49.51;101824.06;5021877;28;20295;-81
2021/03/07 05:40:48;;;;;;;;;;;;;;;6.06;48.58;101818.81;5038812;28;20315;-81
2021/03/07 05:43:33;;;;;;;;;;;;;;;6.22;49.51;101817.88;5009429;28;19913;-81
2021/03/07 05:46:18;;;;;;;;;;;;;;;6.01;47.98;101816.09;5012407;28;19913;-81
2021/03/07 05:49:03;;;;;;;;;;;;;;;5.88;47.97;101817.34;5011867;28;19913;-81
2021/03/07 05:51:48;;;;;;;;;;;;;;;5.80;48.16;101812.38;5022513;28;19913;-81
2021/03/07 05:54:33;;;;;;;;;;;;;;;5.82;49.55;101812.94;5037181;28;19912;-81
2021/03/07 05:57:22;;;;;;;;;;;;;;;5.85;48.25;101807.00;5021959;28;20295;-80
2021/03/07 06:00:07;;;;;;;;;;;;;;;5.94;49.29;101810.88;5039696;28;19913;-81
2021/03/07 06:02:51;;;;;;;;;;;;;;;5.86;48.00;101808.66;5047192;28;19916;-80
2021/03/07 06:05:36;;;;;;;;;;;;;;;5.74;48.69;101802.59;5031041;28;19912;-81
2021/03/07 06:08:21;;;;;;;;;;;;;;;5.86;49.61;101799.72;5043586;28;19912;-80
2021/03/07 06:11:06;;;;;;;;;;;;;;;5.93;48.38;101803.06;5055477;28;19916;-80
2021/03/07 06:13:50;;;;;;;;;;;;;;;5.80;49.48;101803.44;5043986;28;19913;-79
2021/03/07 06:16:34;;;;;;;;;;;;;;;5.75;48.48;101804.22;5052430;28;19913;-81
2021/03/07 06:19:20;;;;;;;;;;;;;;;5.66;48.61;101800.38;5045864;28;19912;-82
2021/03/07 06:22:12;;;;;;;;;;;;;;;5.84;49.25;101794.59;5039177;28;19913;-81
2021/03/07 06:24:57;;;;;;;;;;;;;;;5.57;49.32;101788.41;5045231;28;19912;-86
2021/03/07 06:27:42;;;;;;;;;;;;;;;5.73;49.98;101792.88;5057292;28;19921;-86
2021/03/07 06:30:30;;;;;;;;;;;;;;;6.13;50.49;101792.44;5044450;28;20395;-86
2021/03/07 06:33:32;;;;;;;;;;;;;;;6.62;48.52;101789.47;5040420;28;19913;-86
2021/03/07 06:36:16;;;;;;;;;;;;;;;6.72;47.97;101794.94;5047007;28;19913;-86
2021/03/07 06:39:04;;;;;;;;;;;;;;;6.85;47.41;101792.59;5048597;28;19916;-86
2021/03/07 06:41:59;;;;;;;;;;;;;;;6.78;47.20;101789.31;5041489;28;19912;-86
2021/03/07 06:44:56;;;;;;;;;;;;;;;6.72;47.26;101789.53;5048106;28;20421;-85
2021/03/07 06:47:53;;;;;;;;;;;;;;;6.61;48.46;101793.25;5056317;28;19912;-86
2021/03/07 06:50:57;;;;;;;;;;;;;;;6.51;49.47;101796.72;5047691;28;19916;-85
2021/03/07 06:53:42;;;;;;;;;;;;;;;6.44;48.39;101788.06;5047346;28;19939;-86
2021/03/07 06:56:40;;;;;;;;;;;;;;;6.39;48.09;101796.13;5045624;28;19913;-85
2021/03/07 06:59:26;;;;;;;;;;;;;;;6.41;48.91;101802.06;5031844;28;19912;-85
2021/03/07 07:02:11;;;;;;;;;;;;;;;6.52;48.53;101794.84;5047846;28;19913;-86
2021/03/07 07:04:56;;;;;;;;;;;;;;;6.58;48.79;101793.78;5028227;28;20375;-84
2021/03/07 07:07:47;;;;;;;;;;;;;;;6.50;48.68;101797.00;5027669;28;19913;-85
2021/03/07 07:10:52;;;;;;;;;;;;;;;6.54;48.98;101790.81;5047537;28;19912;-85
2021/03/07 07:13:48;;;;;;;;;;;;;;;6.86;49.52;101794.19;5047347;28;19916;-85
2021/03/07 07:16:34;;;;;;;;;;;;;;;7.01;49.04;101798.06;5043987;28;19912;-85
2021/03/07 07:19:19;;;;;;;;;;;;;;;7.11;49.73;101798.88;5047105;28;19913;-85
2021/03/07 07:22:05;;;;;;;;;;;;;;;7.17;49.91;101797.81;5055650;28;19916;-85
2021/03/07 07:24:49;;;;;;;;;;;;;;;7.21;49.72;101795.44;5056006;28;20287;-85
2021/03/07 07:27:34;;;;;;;;;;;;;;;7.29;49.62;101805.72;5028119;28;19932;-84
2021/03/07 07:30:19;;;;;;;;;;;;;;;7.34;49.20;101796.81;5026699;28;19912;-85
2021/03/07 07:33:06;;;;;;;;;;;;;;;7.33;48.00;101804.09;5033165;28;19913;-85
2021/03/07 07:35:54;;;;;;;;;;;;;;;7.27;47.87;101797.88;5061624;28;19913;-85
2021/03/07 07:38:39;;;;;;;;;;;;;;;7.41;47.69;101798.19;5032956;28;19912;-85
2021/03/07 07:41:35;;;;;;;;;;;;;;;7.40;47.75;101793.84;5055493;28;19912;-85
2021/03/07 07:44:32;;;;;;;;;;;;;;;7.50;47.34;101793.06;5033360;28;19912;-85
2021/03/07 07:47:17;;;;;;;;;;;;;;;7.54;47.65;101792.25;5028395;28;19912;-84
2021/03/07 07:50:01;;;;;;;;;;;;;;;7.61;46.69;101795.50;5033136;28;20375;-86
2021/03/07 07:52:46;;;;;;;;;;;;;;;7.67;46.92;101791.72;5033188;28;19912;-86
2021/03/07 07:55:48;;;;;;;;;;;;;;;7.45;47.71;101788.44;5061863;28;19912;-85
2021/03/07 07:58:40;;;;;;;;;;;;;;;7.62;48.43;101793.59;5028750;28;19916;-85
2021/03/07 08:01:44;;;;;;;;;;;;;;;7.72;47.66;101793.59;5033253;28;19913;-85
2021/03/07 08:04:28;;;;;;;;;;;;;;;7.98;48.29;101786.31;5030822;28;19917;-84
2021/03/07 08:07:13;;;;;;;;;;;;;;;8.05;46.76;101798.50;5029650;28;19916;-84
2021/03/07 08:09:58;;;;;;;;;;;;;;;8.25;48.11;101797.66;5032827;28;19912;-85
2021/03/07 08:12:47;;;;;;;;;;;;;;;8.09;47.64;101788.75;5030212;28;19912;-84
2021/03/07 08:15:33;;;;;;;;;;;;;;;8.18;47.43;101791.72;5033722;28;19913;-84
2021/03/07 08:18:20;;;;;;;;;;;;;;;8.11;47.33;101781.16;5041544;28;19916;-84
2021/03/07 08:21:05;;;;;;;;;;;;;;;8.02;47.67;101790.13;5033882;28;20323;-84
2021/03/07 08:23:53;;;;;;;;;;;;;;;8.18;48.06;101783.59;5028430;28;19912;-84
2021/03/07 08:26:44;;;;;;;;;;;;;;;8.22;47.77;101786.56;5053685;23;19921;-78
2021/03/07 08:29:43;;;;;;;;;;;;;;;8.39;47.65;101782.50;5060102;28;19924;-78
2021/03/07 08:32:28;;;;;;;;;;;;;;;8.42;48.86;101787.38;5087405;28;20380;-79
2021/03/07 08:35:13;;;;;;;;;;;;;;;8.42;49.06;101775.72;5069511;28;19916;-78
2021/03/07 08:38:13;;;;;;;;;;;;;;;8.58;49.02;101775.41;5075010;28;19916;-79
2021/03/07 08:41:00;;;;;;;;;;;;;;;8.58;48.61;101780.81;5061416;28;19912;-78
2021/03/07 08:43:52;;;;;;;;;;;;;;;8.48;47.97;101777.34;5093791;28;20386;-78
2021/03/07 08:46:40;;;;;;;;;;;;;;;8.45;48.49;101770.56;5068678;28;19912;-79
2021/03/07 08:49:26;;;;;;;;;;;;;;;8.74;48.69;101783.47;5071510;28;19912;-78
2021/03/07 08:52:12;;;;;;;;;;;;;;;8.78;48.05;101774.53;5078799;28;20064;-78
2021/03/07 08:55:00;;;;;;;;;;;;;;;8.79;48.74;101772.63;5058923;28;19912;-78
2021/03/07 08:57:45;;;;;;;;;;;;;;;8.69;45.97;101770.75;5046141;28;20468;-79
2021/03/07 09:00:30;;;;;;;;;;;;;;;8.87;42.59;101767.44;5059868;28;19913;-78
2021/03/07 09:03:15;;;;;;;;;;;;;;;8.84;43.34;101770.69;5060327;28;19912;-79
2021/03/07 09:06:07;;;;;;;;;;;;;;;8.68;43.76;101769.16;5073274;28;19912;-80
2021/03/07 09:09:01;;;;;;;;;;;;;;;8.88;43.49;101760.13;5069157;28;19921;-79
2021/03/07 09:11:50;;;;;;;;;;;;;;;8.90;44.00;101761.47;5079282;28;19912;-81
2021/03/07 09:14:37;;;;;;;;;;;;;;;8.93;44.00;101752.78;5089478;28;19913;-80
2021/03/07 09:17:22;;;;;;;;;;;;;;;9.20;43.22;101754.25;5065487;28;19917;-80
2021/03/07 09:20:10;;;;;;;;;;;;;;;9.15;43.60;101755.09;5059553;28;19913;-80
2021/03/07 09:22:54;;;;;;;;;;;;;;;8.98;42.86;101747.34;5066619;28;20363;-80
2021/03/07 09:25:48;;;;;;;;;;;;;;;9.18;44.17;101745.59;5078166;28;20366;-79
2021/03/07 09:28:47;;;;;;;;;;;;;;;9.19;43.27;101748.03;5057952;28;20052;-81
2021/03/07 09:31:36;;;;;;;;;;;;;;;9.16;44.63;101743.16;5075682;28;19912;-80
2021/03/07 09:34:29;;;;;;;;;;;;;;;9.29;43.00;101742.53;5082314;28;20536;-80
2021/03/07 09:37:14;;;;;;;;;;;;;;;9.40;43.04;101738.66;5077243;28;19921;-79
2021/03/07 09:40:00;;;;;;;;;;;;;;;9.39;42.82;101728.91;5061559;28;19908;-82
2021/03/07 09:42:52;;;;;;;;;;;;;;;9.32;42.79;101724.88;5049304;28;19912;-81
2021/03/07 09:45:38;;;;;;;;;;;;;;;9.38;42.50;101719.13;5067829;28;19912;-79
2021/03/07 09:48:28;;;;;;;;;;;;;;;9.40;42.72;101719.66;5047630;28;19913;-80
2021/03/07 09:51:14;;;;;;;;;;;;;;;9.44;41.91;101718.00;5049666;28;20386;-80
2021/03/07 09:53:59;;;;;;;;;;;;;;;9.64;42.26;101710.78;5048333;28;20321;-79
2021/03/07 09:56:44;;;;;;;;;;;;;;;9.45;41.33;101713.38;5066996;28;19912;-81
2021/03/07 09:59:34;;;;;;;;;;;;;;;9.63;41.56;101709.16;5048726;28;19916;-82
2021/03/07 10:02:19;;;;;;;;;;;;;;;9.74;42.35;101708.00;5060622;28;19912;-79
2021/03/07 10:05:14;;;;;;;;;;;;;;;9.84;39.86;101711.44;5050201;28;19912;-82
2021/03/07 10:07:58;;;;;;;;;;;;;;;9.83;39.34;101703.56;5047404;28;20322;-80
2021/03/07 10:10:43;;;;;;;;;;;;;;;9.75;39.61;101701.47;5075186;28;19916;-81
2021/03/07 10:13:28;;;;;;;;;;;;;;;9.77;39.32;101688.41;5052808;28;20371;-80
2021/03/07 10:16:23;;;;;;;;;;;;;;;9.84;40.70;101683.44;5059414;28;19916;-79
2021/03/07 10:19:14;;;;;;;;;;;;;;;9.92;41.22;101685.53;5074796;28;19917;-80
2021/03/07 10:22:01;;;;;;;;;;;;;;;9.89;40.42;101691.56;5074343;28;19913;-79
2021/03/07 10:24:51;;;;;;;;;;;;;;;9.99;40.29;101675.16;5059477;28;20002;-80
2021/03/07 10:27:36;;;;;;;;;;;;;;;9.92;40.90;101682.81;5047754;28;19912;-79
2021/03/07 10:30:31;;;;;;;;;;;;;;;9.96;40.33;101681.13;5059068;28;19912;-80
2021/03/07 10:33:17;;;;;;;;;;;;;;;10.13;40.77;101673.34;5073184;28;19912;-78
2021/03/07 10:36:06;;;;;;;;;;;;;;;10.07;40.41;101673.69;5064357;28;19920;-78
2021/03/07 10:38:51;;;;;;;;;;;;;;;10.07;40.00;101666.34;5061662;28;19916;-78
2021/03/07 10:41:36;;;;;;;;;;;;;;;10.02;41.79;101658.25;5060013;28;19912;-79
2021/03/07 10:44:24;;;;;;;;;;;;;;;10.19;40.63;101658.66;5078214;28;19912;-78
2021/03/07 10:47:19;;;;;;;;;;;;;;;10.25;40.21;101662.94;5047458;28;19916;-80
2021/03/07 10:50:05;;;;;;;;;;;;;;;10.43;39.09;101657.81;5058256;28;19912;-81
2021/03/07 10:52:50;;;;;;;;;;;;;;;10.53;38.40;101652.25;5076953;28;19913;-81
2021/03/07 10:55:35;;;;;;;;;;;;;;;10.57;39.43;101647.84;5061201;28;19913;-79
2021/03/07 10:58:20;;;;;;;;;;;;;;;10.43;39.44;101646.94;5059116;28;19916;-79
2021/03/07 11:01:04;;;;;;;;;;;;;;;10.36;38.77;101641.06;5063496;28;19913;-77
2021/03/07 11:03:49;;;;;;;;;;;;;;;10.34;39.80;101637.81;5072187;28;20278;-78
2021/03/07 11:06:34;;;;;;;;;;;;;;;10.59;37.73;101641.03;5059502;28;19912;-77
2021/03/07 11:09:19;;;;;;;;;;;;;;;10.62;37.41;101639.63;5076935;28;19912;-78
2021/03/07 11:12:05;;;;;;;;;;;;;;;10.53;38.49;101630.50;5041276;28;20322;-78
2021/03/07 11:14:50;;;;;;;;;;;;;;;10.56;39.69;101629.94;5039360;28;19913;-77
2021/03/07 11:17:35;;;;;;;;;;;;;;;10.65;37.78;101623.53;5037800;28;19925;-78
2021/03/07 11:20:20;;;;;;;;;;;;;;;10.69;37.76;101618.31;5041578;28;19913;-78
2021/03/07 11:23:05;;;;;;;;;;;;;;;10.78;38.01;101616.53;5038818;28;19913;-79
2021/03/07 11:25:50;;;;;;;;;;;;;;;10.91;37.87;101615.81;5053585;28;20286;-77
2021/03/07 11:28:34;;;;;;;;;;;;;;;10.95;37.65;101610.59;5054613;28;20378;-78
2021/03/07 11:31:19;;;;;;;;;;;;;;;11.23;36.39;101606.84;5043184;28;19913;-77
2021/03/07 11:34:03;;;;;;;;;;;;;;;11.27;36.64;101612.53;5056337;28;19916;-77
2021/03/07 11:36:50;;;;;;;;;;;;;;;11.29;36.35;101596.69;5046489;28;20294;-77
2021/03/07 11:39:34;;;;;;;;;;;;;;;11.36;38.60;101592.50;5073063;28;19916;-79
2021/03/07 11:42:18;;;;;;;;;;;;;;;11.26;37.24;101579.06;5071523;28;20521;-77
2021/03/07 11:45:04;;;;;;;;;;;;;;;11.25;37.73;101580.16;5075644;28;19916;-76
2021/03/07 11:47:49;;;;;;;;;;;;;;;11.44;35.83;101580.09;5072761;28;19912;-78
2021/03/07 11:50:34;;;;;;;;;;;;;;;11.54;36.47;101575.25;5043943;28;19912;-77
2021/03/07 11:53:20;;;;;;;;;;;;;;;11.51;36.38;101575.88;5057480;28;20379;-77
2021/03/07 11:56:04;;;;;;;;;;;;;;;11.53;36.35;101559.22;5045994;28;19912;-77
2021/03/07 11:58:49;;;;;;;;;;;;;;;11.79;35.77;101556.84;5044306;28;19917;-77
2021/03/07 12:01:34;;;;;;;;;;;;;;;12.02;34.72;101552.31;5079018;28;19912;-79
2021/03/07 12:04:19;;;;;;;;;;;;;;;12.01;35.50;101546.06;5062365;28;19920;-78
2021/03/07 12:07:03;;;;;;;;;;;;;;;12.06;36.21;101543.22;5060488;28;19916;-79
2021/03/07 12:09:48;;;;;;;;;;;;;;;12.05;35.83;101540.78;5077210;28;20363;-79
2021/03/07 12:12:33;;;;;;;;;;;;;;;12.17;35.98;101535.63;5072875;28;20390;-79
2021/03/07 12:15:19;;;;;;;;;;;;;;;12.27;35.34;101533.50;5080531;28;19912;-79
2021/03/07 12:18:04;;;;;;;;;;;;;;;12.22;34.85;101510.97;5073682;28;19920;-79
2021/03/07 12:20:48;;;;;;;;;;;;;;;12.56;37.80;101516.72;5073893;28;19912;-79
2021/03/07 12:23:32;;;;;;;;;;;;;;;13.26;39.05;101508.72;5044813;28;19913;-76
2021/03/07 12:26:17;;;;;;;;;;;;;;;13.58;40.21;101502.13;5073185;28;19912;-77
2021/03/07 12:29:05;;;;;;;;;;;;;;;13.38;37.59;101499.94;5064804;28;19912;-78
2021/03/07 12:31:49;;;;;;;;;;;;;;;13.28;34.06;101492.84;5062482;28;19912;-78
2021/03/07 12:34:34;;;;;;;;;;;;;;;13.49;35.44;101486.81;5060755;28;19912;-77
2021/03/07 12:37:19;;;;;;;;;;;;;;;13.48;35.08;101482.47;5075040;28;19920;-77
2021/03/07 12:40:04;;;;;;;;;;;;;;;13.53;33.97;101464.00;5076172;28;19920;-75
2021/03/07 12:42:49;;;;;;;;;;;;;;;13.29;33.46;101455.41;5057473;28;19913;-75
2021/03/07 12:45:33;;;;;;;;;;;;;;;13.47;33.34;101459.78;5075595;28;19916;-77
2021/03/07 12:48:17;;;;;;;;;;;;;;;14.02;38.69;101456.53;5074839;28;19912;-75
2021/03/07 12:51:02;;;;;;;;;;;;;;;14.39;39.85;101455.97;5075171;28;20375;-75
2021/03/07 12:53:48;;;;;;;;;;;;;;;14.54;39.37;101441.78;5059881;28;19912;-76
2021/03/07 12:56:34;;;;;;;;;;;;;;;14.47;38.52;101440.69;5076145;28;20375;-75
2021/03/07 12:59:19;;;;;;;;;;;;;;;14.84;36.59;101436.41;5074368;28;19917;-76
2021/03/07 13:02:04;;;;;;;;;;;;;;;14.75;37.45;101430.16;5063791;28;19917;-75
2021/03/07 13:04:48;;;;;;;;;;;;;;;14.64;32.89;101421.47;5062553;28;20291;-75
2021/03/07 13:07:33;;;;;;;;;;;;;;;14.99;37.36;101419.44;5059773;28;19916;-76
2021/03/07 13:10:18;;;;;;;;;;;;;;;15.34;35.97;101425.59;5050302;28;19912;-76
2021/03/07 13:13:02;;;;;;;;;;;;;;;15.27;33.58;101411.63;5073352;28;19912;-75
2021/03/07 13:15:47;;;;;;;;;;;;;;;15.35;35.32;101413.50;5046693;28;19913;-75
2021/03/07 13:18:32;;;;;;;;;;;;;;;15.07;34.46;101404.94;5074287;28;19921;-76
2021/03/07 13:21:18;;;;;;;;;;;;;;;14.58;33.06;101400.09;5074587;28;19912;-76
2021/03/07 13:24:03;;;;;;;;;;;;;;;14.73;34.65;101394.09;5046156;28;20370;-75
2021/03/07 13:26:48;;;;;;;;;;;;;;;14.89;34.23;101387.75;5073799;28;19916;-76
2021/03/07 13:29:33;;;;;;;;;;;;;;;15.12;35.67;101387.50;5076163;28;19916;-74
2021/03/07 13:32:18;;;;;;;;;;;;;;;14.98;34.34;101379.50;5059840;28;19912;-76
2021/03/07 13:35:02;;;;;;;;;;;;;;;15.17;35.00;101384.59;5072861;28;20294;-75
2021/03/07 13:37:47;;;;;;;;;;;;;;;15.31;36.03;101372.25;5075814;28;19913;-76
2021/03/07 13:40:32;;;;;;;;;;;;;;;15.56;34.26;101369.72;5059086;28;20406;-75
2021/03/07 13:43:17;;;;;;;;;;;;;;;15.46;33.16;101356.38;5064600;28;19916;-76
2021/03/07 13:46:02;;;;;;;;;;;;;;;15.25;32.61;101359.88;5073217;28;19912;-74
2021/03/07 13:48:48;;;;;;;;;;;;;;;15.33;32.90;101352.75;5074128;28;19913;-75
2021/03/07 13:51:33;;;;;;;;;;;;;;;15.32;35.49;101356.63;5074051;28;20398;-75
2021/03/07 13:54:20;;;;;;;;;;;;;;;15.15;32.91;101351.22;5077950;28;19912;-76
2021/03/07 13:57:05;;;;;;;;;;;;;;;15.08;32.79;101346.28;5075456;28;19912;-74
2021/03/07 13:59:49;;;;;;;;;;;;;;;15.04;31.37;101337.09;5058788;28;19916;-76
2021/03/07 14:02:33;;;;;;;;;;;;;;;15.09;32.50;101331.44;5077023;28;19916;-76
2021/03/07 14:05:18;;;;;;;;;;;;;;;15.15;32.63;101329.31;5073728;28;19913;-74
2021/03/07 14:08:02;;;;;;;;;;;;;;;15.04;30.75;101320.66;5059161;28;19913;-76
2021/03/07 14:10:47;;;;;;;;;;;;;;;14.78;31.80;101315.28;5062702;28;19912;-75
2021/03/07 14:13:31;;;;;;;;;;;;;;;15.06;32.38;101321.13;5072649;28;20378;-76
2021/03/07 14:16:16;;;;;;;;;;;;;;;14.78;33.28;101309.03;5056933;28;20374;-75
2021/03/07 14:19:02;;;;;;;;;;;;;;;15.29;33.55;101299.72;5069825;28;19916;-74
2021/03/07 14:21:46;;;;;;;;;;;;;;;15.30;32.86;101296.66;5078320;28;19912;-75